KFHR/FHR METAR and TAF weather

Enter ICAO airport designator
Station Type Date Time Source
KFHR METAR 2019/12/12 16:53 UTC NOAA

KFHR 121653Z AUTO 17008KT 5SM RA BR OVC041 08/07 A2986 RMK AO2 RAB07 SLP113 P0002 T00780067


Station Type Date Time Source
KFHR Decoded METAR 2019/12/12 16:53 UTC NOAA

FRIDAY HARBOR AIRPORT, WA, United States (KFHR) 48-31N 123-02W 32M
Dec 12, 2019 - 11:53 AM EST / 2019.12.12 1653 UTC
Wind: from the S (170 degrees) at 9 MPH (8 KT):0
Visibility: 5 mile(s):0
Sky conditions: overcast
Weather: rain; mist
Precipitation last hour: 0.02 inches
Temperature: 46.0 F (7.8 C)
Dew Point: 44.1 F (6.7 C)
Relative Humidity: 92%
Pressure (altimeter): 29.86 in. Hg (1011 hPa)
ob: KFHR 121653Z AUTO 17008KT 5SM RA BR OVC041 08/07 A2986 RMK AO2 RAB07 SLP113 P0002 T00780067
cycle: 17

Station Type Date Time Source
KFHR TAF UTC NOAA

Error!

Example: see airport list